Time;durP1;ratioP1;P1;durP2;ratioP2;P2;SDS_P1;SDS_P2;PMS_P1;PMS_P2;Temp;Humidity;BMP_temperature;BMP_pressure;BME280_temperature;BME280_humidity;BME280_pressure;Samples;Min_cycle;Max_cycle;Signal;HPM_P1;HPM_P2
2023/02/22 00:00:51;;;;;;;10.27;5.57;;;8.40;99.90;;;;;;5051688;28;20226;-86
2023/02/22 00:03:26;;;;;;;21.27;8.57;;;8.40;99.90;;;;;;5050180;28;20686;-84
2023/02/22 00:05:58;;;;;;;17.27;9.13;;;8.40;99.90;;;;;;5053308;28;20228;-85
2023/02/22 00:08:31;;;;;;;15.07;6.60;;;8.40;99.90;;;;;;5071672;28;20221;-83
2023/02/22 00:10:59;;;;;;;9.07;6.73;;;8.40;99.90;;;;;;5071551;28;20197;-86
2023/02/22 00:13:27;;;;;;;9.80;6.17;;;8.40;99.90;;;;;;5053763;28;20574;-83
2023/02/22 00:15:58;;;;;;;18.47;8.50;;;8.40;99.90;;;;;;5053006;28;20300;-83
2023/02/22 00:18:28;;;;;;;13.97;9.00;;;8.40;99.90;;;;;;5036024;28;20225;-84
2023/02/22 00:20:58;;;;;;;15.83;10.07;;;8.50;99.90;;;;;;5070214;28;20220;-85
2023/02/22 00:23:25;;;;;;;14.77;11.10;;;8.50;99.90;;;;;;5053311;28;20651;-87
2023/02/22 00:25:51;;;;;;;16.00;6.70;;;8.50;99.90;;;;;;5070797;28;20688;-82
2023/02/22 00:28:17;;;;;;;10.53;7.10;;;8.50;99.90;;;;;;5036998;28;20269;-85
2023/02/22 00:30:44;;;;;;;14.53;5.87;;;8.50;99.90;;;;;;5036705;28;20219;-83
2023/02/22 00:33:13;;;;;;;18.10;9.13;;;8.50;99.90;;;;;;5037024;28;20217;-84
2023/02/22 00:35:39;;;;;;;14.33;7.93;;;8.50;99.90;;;;;;5053229;28;20247;-84
2023/02/22 00:38:04;;;;;;;13.17;6.67;;;8.50;99.90;;;;;;5071006;28;20174;-87
2023/02/22 00:40:33;;;;;;;10.60;7.27;;;8.50;99.90;;;;;;5036954;28;20272;-83
2023/02/22 00:43:02;;;;;;;11.90;5.00;;;8.40;99.90;;;;;;5053175;28;20281;-85
2023/02/22 00:45:30;;;;;;;12.90;7.10;;;8.40;99.90;;;;;;5036787;28;20796;-84
2023/02/22 00:47:56;;;;;;;15.23;7.83;;;8.40;99.90;;;;;;5053149;28;20773;-83
2023/02/22 00:50:25;;;;;;;18.40;6.37;;;8.40;99.90;;;;;;5053152;28;20224;-83
2023/02/22 00:52:51;;;;;;;17.93;7.77;;;8.40;99.90;;;;;;5036473;28;20208;-83
2023/02/22 00:55:23;;;;;;;13.90;6.80;;;8.40;99.90;;;;;;5036571;28;20274;-84
2023/02/22 00:57:50;;;;;;;10.17;7.67;;;8.40;99.90;;;;;;5052893;28;20223;-83
2023/02/22 01:00:24;;;;;;;7.30;5.30;;;8.50;99.90;;;;;;5070575;28;20229;-84
2023/02/22 01:02:49;;;;;;;16.10;9.40;;;8.50;99.90;;;;;;5070444;28;20217;-83
2023/02/22 01:05:21;;;;;;;11.20;8.13;;;8.40;99.90;;;;;;5035391;28;20241;-84
2023/02/22 01:07:48;;;;;;;13.27;7.57;;;8.40;99.90;;;;;;5052326;28;20177;-81
2023/02/22 01:10:16;;;;;;;16.57;8.00;;;8.50;99.90;;;;;;5053112;28;20180;-84
2023/02/22 01:12:42;;;;;;;11.57;6.27;;;8.50;99.90;;;;;;5036185;28;20237;-83
2023/02/22 01:15:10;;;;;;;9.23;6.30;;;8.50;99.90;;;;;;5052549;28;20883;-83
2023/02/22 01:17:37;;;;;;;14.80;6.87;;;8.40;99.90;;;;;;5052624;28;20686;-83
2023/02/22 01:20:11;;;;;;;22.13;8.80;;;8.40;99.90;;;;;;5070113;28;20693;-84
2023/02/22 01:22:42;;;;;;;13.00;7.87;;;8.40;99.90;;;;;;5053858;28;20166;-85
2023/02/22 01:25:10;;;;;;;10.43;6.40;;;8.50;99.90;;;;;;5052548;28;20304;-88
2023/02/22 01:27:37;;;;;;;11.13;5.57;;;8.50;99.90;;;;;;5069886;28;20252;-84
2023/02/22 01:30:07;;;;;;;12.43;5.40;;;8.50;99.90;;;;;;5069983;28;20585;-84
2023/02/22 01:32:38;;;;;;;9.20;6.17;;;8.50;99.90;;;;;;5051991;28;20631;-86
2023/02/22 01:35:07;;;;;;;11.87;5.60;;;8.40;99.90;;;;;;5052007;28;20169;-84
2023/02/22 01:37:33;;;;;;;9.33;5.03;;;8.40;99.90;;;;;;5070651;28;20178;-85
2023/02/22 01:39:59;;;;;;;9.83;4.70;;;8.40;99.90;;;;;;5019316;28;20217;-85
2023/02/22 01:42:26;;;;;;;15.23;6.43;;;8.40;99.90;;;;;;5035630;28;20262;-84
2023/02/22 01:45:29;;;;;;;19.90;8.70;;;8.40;99.90;;;;;;5052001;28;20237;-83
2023/02/22 01:47:57;;;;;;;4.60;3.37;;;8.40;99.90;;;;;;5051776;28;20212;-87
2023/02/22 01:50:23;;;;;;;6.50;3.63;;;8.30;99.90;;;;;;5069495;28;20758;-88
2023/02/22 01:52:49;;;;;;;13.90;5.60;;;8.30;99.90;;;;;;5051131;28;20201;-84
2023/02/22 01:55:16;;;;;;;13.23;6.67;;;8.30;99.90;;;;;;5069880;28;20816;-84
2023/02/22 01:57:42;;;;;;;29.27;6.20;;;8.30;99.90;;;;;;5050987;28;20219;-84
2023/02/22 02:00:20;;;;;;;13.57;5.40;;;8.30;99.90;;;;;;5069278;28;20225;-83
2023/02/22 02:02:53;;;;;;;7.10;4.33;;;8.30;99.90;;;;;;5069361;28;20224;-84
2023/02/22 02:05:19;;;;;;;6.13;5.27;;;8.40;99.90;;;;;;5069454;28;20237;-84
2023/02/22 02:07:45;;;;;;;13.23;4.53;;;8.30;99.90;;;;;;5035503;28;20185;-84
2023/02/22 02:10:14;;;;;;;8.80;5.07;;;8.40;99.90;;;;;;5035398;28;20221;-87
2023/02/22 02:12:46;;;;;;;7.73;5.23;;;8.40;99.90;;;;;;5051480;28;20217;-83
2023/02/22 02:15:28;;;;;;;13.23;7.10;;;8.40;99.90;;;;;;5051525;28;20353;-83
2023/02/22 02:17:59;;;;;;;11.90;7.53;;;8.40;99.90;;;;;;5051656;28;20209;-83
2023/02/22 02:20:59;;;;;;;14.53;7.20;;;8.30;99.90;;;;;;5068648;28;20217;-83
2023/02/22 02:23:53;;;;;;;12.80;7.07;;;8.30;99.90;;;;;;5051697;28;20220;-86
2023/02/22 02:26:25;;;;;;;9.57;5.27;;;8.40;99.90;;;;;;5050647;28;20307;-84
2023/02/22 02:29:12;;;;;;;11.50;6.90;;;8.40;99.90;;;;;;5050575;28;20173;-84
2023/02/22 02:31:49;;;;;;;10.90;6.27;;;8.30;99.90;;;;;;5069439;28;20594;-84
2023/02/22 02:34:41;;;;;;;13.87;5.27;;;8.30;99.90;;;;;;5069533;28;20209;-85
2023/02/22 02:37:22;;;;;;;7.30;5.57;;;8.40;99.90;;;;;;5069466;28;20785;-85
2023/02/22 02:40:00;;;;;;;6.37;4.37;;;8.40;99.90;;;;;;5069278;28;20209;-84
2023/02/22 02:42:35;;;;;;;5.93;5.17;;;8.40;99.90;;;;;;5069241;28;20212;-87
2023/02/22 02:45:10;;;;;;;12.07;4.53;;;8.30;99.90;;;;;;5050457;28;20216;-83
2023/02/22 02:47:43;;;;;;;8.00;6.60;;;8.30;99.90;;;;;;5049860;28;20727;-85
2023/02/22 02:50:18;;;;;;;13.87;4.00;;;8.30;99.90;;;;;;5050338;28;20229;-85
2023/02/22 02:52:46;;;;;;;9.57;4.47;;;8.30;99.90;;;;;;5069525;28;20246;-85
2023/02/22 02:55:13;;;;;;;8.40;4.50;;;8.40;99.90;;;;;;5069243;28;20213;-84
2023/02/22 02:57:39;;;;;;;5.97;4.23;;;8.30;99.90;;;;;;5034842;28;20271;-84
2023/02/22 03:00:21;;;;;;;14.83;6.63;;;8.40;99.90;;;;;;5034533;28;20306;-84
2023/02/22 03:02:58;;;;;;;4.27;3.90;;;8.40;99.90;;;;;;5051232;28;20237;-83
2023/02/22 03:05:58;;;;;;;9.03;5.93;;;8.40;99.90;;;;;;5068595;28;20244;-83
2023/02/22 03:08:39;;;;;;;13.63;4.30;;;8.40;99.90;;;;;;5051206;28;20221;-83
2023/02/22 03:11:13;;;;;;;9.63;5.43;;;8.40;99.90;;;;;;5068888;28;20217;-84
2023/02/22 03:14:09;;;;;;;6.00;2.37;;;8.40;99.90;;;;;;5051272;28;20264;-84
2023/02/22 03:17:10;;;;;;;9.53;7.30;;;8.40;99.90;;;;;;5051239;28;20213;-87
2023/02/22 03:19:44;;;;;;;8.87;5.10;;;8.40;99.90;;;;;;5063953;28;20200;-85
2023/02/22 03:22:13;;;;;;;8.20;4.10;;;8.40;99.90;;;;;;5069015;28;20236;-84
2023/02/22 03:25:07;;;;;;;15.50;5.23;;;8.40;99.90;;;;;;5068517;28;20686;-86
2023/02/22 03:27:42;;;;;;;7.63;4.60;;;8.40;99.90;;;;;;5050722;28;20252;-85
2023/02/22 03:30:43;;;;;;;12.40;4.93;;;8.40;99.90;;;;;;5051318;28;20312;-86
2023/02/22 03:33:15;;;;;;;5.00;3.27;;;8.40;99.90;;;;;;5065372;28;20216;-84
2023/02/22 03:35:47;;;;;;;6.13;3.80;;;8.50;99.90;;;;;;5072281;28;20220;-83
2023/02/22 03:38:16;;;;;;;8.87;5.63;;;8.50;99.90;;;;;;5054515;28;20216;-86
2023/02/22 03:40:45;;;;;;;7.17;4.57;;;8.40;99.90;;;;;;5072779;28;20260;-84
2023/02/22 03:43:20;;;;;;;5.17;3.77;;;8.40;99.90;;;;;;5054667;28;20214;-85
2023/02/22 03:45:49;;;;;;;9.57;4.57;;;8.40;99.90;;;;;;5054134;28;20227;-83
2023/02/22 03:48:24;;;;;;;11.90;4.53;;;8.40;99.90;;;;;;5054162;28;20213;-84
2023/02/22 03:50:50;;;;;;;11.17;4.97;;;8.30;99.90;;;;;;5071972;28;20224;-84
2023/02/22 03:53:17;;;;;;;8.50;3.83;;;8.30;99.90;;;;;;5037301;28;20221;-85
2023/02/22 03:55:50;;;;;;;10.17;5.50;;;8.30;99.90;;;;;;5054331;28;20319;-84
2023/02/22 03:58:19;;;;;;;11.93;4.80;;;8.30;99.90;;;;;;5038565;28;20217;-84
2023/02/22 04:00:45;;;;;;;7.87;5.77;;;8.30;99.90;;;;;;5071659;28;20220;-84
2023/02/22 04:03:11;;;;;;;6.20;4.00;;;8.30;99.90;;;;;;5054080;28;20217;-85
2023/02/22 04:05:37;;;;;;;7.90;4.97;;;8.30;99.90;;;;;;5053642;28;20287;-85
2023/02/22 04:08:05;;;;;;;8.50;3.63;;;8.30;99.90;;;;;;5053599;28;20585;-84
2023/02/22 04:10:32;;;;;;;8.33;4.30;;;8.30;99.90;;;;;;5054069;28;20211;-87
2023/02/22 04:12:58;;;;;;;6.87;5.00;;;8.30;99.90;;;;;;5053901;28;20241;-84
2023/02/22 04:15:24;;;;;;;15.97;5.00;;;8.30;99.90;;;;;;5037038;28;20229;-84
2023/02/22 04:17:51;;;;;;;5.53;3.60;;;8.30;99.90;;;;;;5071369;28;20270;-87
2023/02/22 04:20:24;;;;;;;4.87;3.23;;;8.20;99.90;;;;;;5037267;28;20681;-83
2023/02/22 04:22:52;;;;;;;4.50;3.87;;;8.20;99.90;;;;;;5054752;28;20166;-84
2023/02/22 04:25:18;;;;;;;12.40;6.77;;;8.30;99.90;;;;;;5054098;28;20173;-87
2023/02/22 04:27:43;;;;;;;4.83;2.70;;;8.30;99.90;;;;;;5053458;28;20315;-83
2023/02/22 04:30:10;;;;;;;9.13;4.07;;;8.30;99.90;;;;;;5020328;28;20803;-84
2023/02/22 04:32:37;;;;;;;6.50;4.27;;;8.40;99.90;;;;;;5053544;28;20300;-84
2023/02/22 04:35:04;;;;;;;4.73;3.43;;;8.40;99.90;;;;;;5036777;28;20760;-84
2023/02/22 04:37:30;;;;;;;5.50;5.00;;;8.40;99.90;;;;;;5071479;28;20181;-85
2023/02/22 04:39:55;;;;;;;5.40;3.53;;;8.40;99.90;;;;;;5070921;28;20213;-83
2023/02/22 04:42:21;;;;;;;9.73;5.03;;;8.40;99.90;;;;;;5035909;28;20670;-83
2023/02/22 04:44:47;;;;;;;9.37;4.47;;;8.30;99.90;;;;;;5036452;28;20325;-83
2023/02/22 04:47:13;;;;;;;7.20;3.27;;;8.30;99.90;;;;;;5053097;28;20252;-82
2023/02/22 04:49:39;;;;;;;7.97;5.53;;;8.40;99.90;;;;;;5020531;28;20886;-86
2023/02/22 04:52:05;;;;;;;10.80;4.73;;;8.40;99.90;;;;;;5052810;28;20308;-84
2023/02/22 04:54:30;;;;;;;7.57;4.60;;;8.40;99.90;;;;;;5052958;28;20221;-83
2023/02/22 04:56:56;;;;;;;6.23;5.63;;;8.40;99.90;;;;;;5019658;28;20217;-84
2023/02/22 04:59:22;;;;;;;9.30;5.77;;;8.40;99.90;;;;;;5019932;28;20217;-84
2023/02/22 05:01:48;;;;;;;5.67;4.67;;;8.40;99.90;;;;;;5036345;28;20637;-83
2023/02/22 05:04:13;;;;;;;6.37;3.93;;;8.40;99.90;;;;;;5036939;28;20185;-83
2023/02/22 05:06:39;;;;;;;7.50;4.80;;;8.40;99.90;;;;;;5035832;28;20237;-83
2023/02/22 05:09:05;;;;;;;5.00;4.47;;;8.30;99.90;;;;;;5035692;28;20281;-86
2023/02/22 05:11:30;;;;;;;7.37;5.13;;;8.30;99.90;;;;;;5050774;28;20217;-84
2023/02/22 05:13:56;;;;;;;4.57;4.17;;;8.30;99.90;;;;;;5050267;28;20651;-86
2023/02/22 05:16:22;;;;;;;3.93;3.53;;;8.30;99.90;;;;;;5034714;28;20185;-85
2023/02/22 05:18:48;;;;;;;10.00;3.77;;;8.30;99.90;;;;;;5050376;28;20224;-85
2023/02/22 05:21:14;;;;;;;6.63;4.77;;;8.20;99.90;;;;;;5034355;28;20220;-86
2023/02/22 05:23:40;;;;;;;4.23;2.43;;;8.10;99.90;;;;;;5050542;28;20224;-85
2023/02/22 05:26:06;;;;;;;7.23;4.47;;;8.10;99.90;;;;;;5033675;28;20229;-87
2023/02/22 05:28:32;;;;;;;9.57;2.80;;;8.00;99.90;;;;;;5069057;28;20178;-84
2023/02/22 05:30:58;;;;;;;10.37;4.70;;;8.10;99.90;;;;;;5050066;28;20678;-83
2023/02/22 05:33:23;;;;;;;4.97;4.30;;;8.10;99.90;;;;;;5050000;28;20221;-87
2023/02/22 05:35:49;;;;;;;5.53;4.23;;;8.10;99.90;;;;;;5068163;28;20228;-84
2023/02/22 05:38:17;;;;;;;7.00;3.43;;;8.10;99.90;;;;;;5034680;28;20249;-85
2023/02/22 05:40:43;;;;;;;4.77;4.37;;;8.00;99.90;;;;;;5035924;28;20184;-84
2023/02/22 05:43:09;;;;;;;8.10;2.80;;;8.00;99.90;;;;;;5069747;28;20297;-83
2023/02/22 05:45:35;;;;;;;12.20;4.70;;;8.00;99.90;;;;;;5051643;28;20221;-87
2023/02/22 05:48:01;;;;;;;5.87;4.60;;;8.10;99.90;;;;;;5052007;28;20213;-86
2023/02/22 05:50:28;;;;;;;6.03;3.90;;;8.00;99.90;;;;;;5052032;28;20235;-86
2023/02/22 05:52:54;;;;;;;10.83;4.80;;;8.10;99.90;;;;;;5051693;28;20257;-89
2023/02/22 05:55:22;;;;;;;6.63;4.40;;;8.00;99.90;;;;;;5069757;28;20185;-87
2023/02/22 05:57:48;;;;;;;9.70;3.80;;;8.00;99.90;;;;;;5050812;28;20299;-85
2023/02/22 06:00:34;;;;;;;9.97;4.27;;;8.00;99.90;;;;;;5050524;28;20220;-86
2023/02/22 06:03:03;;;;;;;5.30;3.17;;;8.00;99.90;;;;;;5049671;28;20227;-89
2023/02/22 06:05:30;;;;;;;4.90;4.43;;;8.00;99.90;;;;;;5067554;28;20252;-86
2023/02/22 06:07:57;;;;;;;11.67;5.33;;;8.00;99.90;;;;;;5067846;28;20191;-86
2023/02/22 06:10:22;;;;;;;7.03;5.57;;;7.90;99.90;;;;;;5068456;28;20537;-87
2023/02/22 06:12:49;;;;;;;8.33;4.27;;;7.90;99.90;;;;;;5050110;28;20367;-88
2023/02/22 06:15:17;;;;;;;5.97;3.80;;;7.90;99.90;;;;;;5033806;28;20282;-88
2023/02/22 06:17:43;;;;;;;12.40;5.03;;;7.90;99.90;;;;;;5067930;28;20231;-87
2023/02/22 06:20:10;;;;;;;10.07;3.83;;;7.90;99.90;;;;;;5049896;28;20669;-89
2023/02/22 06:22:36;;;;;;;5.53;4.73;;;7.90;99.90;;;;;;5050609;28;20682;-88
2023/02/22 06:25:05;;;;;;;4.07;3.03;;;7.90;99.90;;;;;;5049406;28;20301;-86
2023/02/22 06:27:31;;;;;;;5.27;4.87;;;7.90;99.90;;;;;;5067655;28;20233;-85
2023/02/22 06:29:58;;;;;;;8.83;3.20;;;7.90;99.90;;;;;;5033571;28;20225;-86
2023/02/22 06:32:23;;;;;;;7.63;5.47;;;7.90;99.90;;;;;;5067657;28;20300;-85
2023/02/22 06:34:49;;;;;;;5.43;3.87;;;7.80;99.90;;;;;;5016907;28;20626;-88
2023/02/22 06:37:15;;;;;;;4.87;2.67;;;7.80;99.90;;;;;;5035389;28;20191;-86
2023/02/22 06:39:40;;;;;;;7.47;3.03;;;7.80;99.90;;;;;;5069426;28;20243;-88
2023/02/22 06:42:06;;;;;;;4.23;3.37;;;7.80;99.90;;;;;;5034853;28;20247;-86
2023/02/22 06:44:32;;;;;;;4.47;4.07;;;7.80;99.90;;;;;;5051132;28;20217;-85
2023/02/22 06:46:58;;;;;;;14.77;4.73;;;7.80;99.90;;;;;;5050764;28;20376;-89
2023/02/22 06:49:26;;;;;;;6.37;2.47;;;7.80;99.90;;;;;;5018743;28;20665;-85
2023/02/22 06:51:52;;;;;;;6.03;3.20;;;7.80;99.90;;;;;;5069185;28;20304;-85
2023/02/22 06:54:18;;;;;;;6.80;5.53;;;7.80;99.90;;;;;;5051178;28;20222;-88
2023/02/22 06:56:44;;;;;;;8.67;5.30;;;7.80;99.90;;;;;;5050780;28;20587;-87
2023/02/22 06:59:09;;;;;;;4.90;3.13;;;7.70;99.90;;;;;;5068519;28;20624;-87
2023/02/22 07:01:35;;;;;;;6.83;4.60;;;7.80;99.90;;;;;;5035416;28;20910;-85
2023/02/22 07:04:01;;;;;;;8.13;4.60;;;7.70;99.90;;;;;;5034969;28;20857;-86
2023/02/22 07:06:27;;;;;;;12.87;7.03;;;7.70;99.90;;;;;;5036366;28;20377;-88
2023/02/22 07:08:53;;;;;;;4.87;4.23;;;7.70;99.90;;;;;;5055553;28;20231;-87
2023/02/22 07:11:19;;;;;;;9.70;5.70;;;7.60;99.90;;;;;;5055231;28;20736;-90
2023/02/22 07:13:45;;;;;;;8.10;5.90;;;7.60;99.90;;;;;;5055353;28;20203;-88
2023/02/22 07:16:10;;;;;;;8.60;4.87;;;7.70;99.90;;;;;;5038691;28;20224;-89
2023/02/22 07:18:37;;;;;;;5.90;3.60;;;7.70;99.90;;;;;;5038175;28;20646;-84
2023/02/22 07:21:03;;;;;;;13.17;5.30;;;7.70;99.90;;;;;;5072442;28;20221;-85
2023/02/22 07:23:29;;;;;;;8.93;5.47;;;7.70;99.90;;;;;;5054516;28;20305;-85
2023/02/22 07:25:55;;;;;;;12.73;5.47;;;7.80;99.90;;;;;;5037544;28;20304;-85
2023/02/22 07:28:20;;;;;;;11.43;5.43;;;7.80;99.90;;;;;;5072676;28;20204;-86
2023/02/22 07:30:46;;;;;;;6.17;4.13;;;7.80;99.90;;;;;;5072310;28;20270;-85
2023/02/22 07:33:12;;;;;;;7.70;5.13;;;7.80;99.90;;;;;;5054365;28;20670;-87
2023/02/22 07:35:48;;;;;;;11.63;6.60;;;7.80;99.90;;;;;;5020378;28;20227;-85
2023/02/22 07:38:15;;;;;;;6.03;5.13;;;7.80;99.90;;;;;;5072062;28;20221;-86
2023/02/22 07:40:42;;;;;;;8.63;4.90;;;7.80;99.90;;;;;;5072989;28;20257;-85
2023/02/22 07:43:22;;;;;;;6.83;3.57;;;7.80;99.90;;;;;;5071991;28;20391;-86
2023/02/22 07:45:49;;;;;;;14.17;6.20;;;7.80;99.90;;;;;;5054298;28;20209;-87
2023/02/22 07:48:16;;;;;;;13.83;5.87;;;7.80;99.90;;;;;;5053922;28;20228;-87
2023/02/22 07:50:42;;;;;;;10.33;4.40;;;7.80;99.90;;;;;;5072150;28;20300;-85
2023/02/22 07:53:22;;;;;;;8.13;5.63;;;7.80;99.90;;;;;;5054536;28;20296;-89
2023/02/22 07:55:51;;;;;;;9.40;6.23;;;7.80;99.90;;;;;;5054750;28;20173;-90
2023/02/22 07:58:22;;;;;;;5.00;4.63;;;7.80;99.90;;;;;;5055042;28;20174;-88
2023/02/22 08:00:48;;;;;;;6.57;5.17;;;7.80;99.90;;;;;;5072138;28;20217;-87
2023/02/22 08:03:17;;;;;;;14.10;5.63;;;7.80;99.90;;;;;;5054368;28;20837;-87
2023/02/22 08:05:49;;;;;;;14.97;6.87;;;7.80;99.90;;;;;;5053842;28;20771;-86
2023/02/22 08:08:16;;;;;;;15.47;8.87;;;7.80;99.90;;;;;;5054518;28;20221;-88
2023/02/22 08:10:43;;;;;;;17.67;7.33;;;7.70;99.90;;;;;;5054908;28;20694;-91
2023/02/22 08:13:09;;;;;;;20.40;6.60;;;7.70;99.90;;;;;;5053238;28;20903;-85
2023/02/22 08:15:40;;;;;;;19.87;7.23;;;7.80;99.90;;;;;;5053968;28;20224;-86
2023/02/22 08:18:12;;;;;;;14.17;8.13;;;7.80;99.90;;;;;;5052813;28;20811;-86
2023/02/22 08:20:40;;;;;;;13.13;6.10;;;7.80;99.90;;;;;;5053942;28;20213;-87
2023/02/22 08:23:07;;;;;;;13.53;9.43;;;7.80;99.90;;;;;;5053804;28;20213;-91
2023/02/22 08:25:33;;;;;;;8.97;6.07;;;7.80;99.90;;;;;;5053948;28;20627;-87
2023/02/22 08:28:01;;;;;;;19.03;11.10;;;7.80;99.90;;;;;;5071315;28;20225;-86
2023/02/22 08:30:28;;;;;;;10.17;9.07;;;7.80;99.90;;;;;;5037195;28;20236;-90
2023/02/22 08:32:55;;;;;;;24.23;10.90;;;7.70;99.90;;;;;;5071570;28;20273;-88
2023/02/22 08:35:22;;;;;;;12.13;8.57;;;7.70;99.90;;;;;;5053442;28;20220;-86
2023/02/22 08:37:51;;;;;;;21.93;11.50;;;7.80;99.90;;;;;;5053499;28;20271;-86
2023/02/22 08:40:23;;;;;;;17.03;8.43;;;7.80;99.90;;;;;;5054168;28;20173;-87
2023/02/22 08:42:49;;;;;;;15.60;11.90;;;7.80;99.90;;;;;;5071342;28;20213;-89
2023/02/22 08:45:15;;;;;;;17.33;7.27;;;7.80;99.90;;;;;;5053399;28;20235;-86
2023/02/22 08:47:41;;;;;;;20.07;10.93;;;7.70;99.90;;;;;;5053319;28;20244;-90
2023/02/22 08:50:09;;;;;;;27.90;8.90;;;7.80;99.90;;;;;;5071020;28;20221;-87
2023/02/22 08:52:34;;;;;;;18.50;9.93;;;7.80;99.90;;;;;;5070836;28;20684;-87
2023/02/22 08:55:00;;;;;;;25.57;11.93;;;7.80;99.90;;;;;;5036911;28;20217;-86
2023/02/22 08:57:27;;;;;;;30.50;11.20;;;7.80;99.90;;;;;;5070935;28;20662;-86
2023/02/22 08:59:52;;;;;;;33.87;12.70;;;7.80;99.90;;;;;;5053078;28;20229;-87
2023/02/22 09:02:20;;;;;;;24.93;10.80;;;7.70;99.90;;;;;;5053220;28;20351;-87
2023/02/22 09:04:47;;;;;;;18.83;8.37;;;7.70;99.90;;;;;;5053439;28;20181;-86
2023/02/22 09:07:14;;;;;;;21.03;7.77;;;7.80;99.90;;;;;;5052662;28;20229;-87
2023/02/22 09:09:42;;;;;;;24.60;11.20;;;7.90;99.90;;;;;;5036581;28;20674;-86
2023/02/22 09:12:08;;;;;;;40.23;12.43;;;7.80;99.90;;;;;;5052717;28;20694;-90
2023/02/22 09:14:34;;;;;;;27.17;12.13;;;7.80;99.90;;;;;;5037151;28;20236;-90
2023/02/22 09:17:00;;;;;;;23.07;10.70;;;7.90;99.90;;;;;;5053774;28;20213;-89
2023/02/22 09:19:26;;;;;;;24.03;12.90;;;7.90;99.90;;;;;;5021143;28;20627;-90
2023/02/22 09:21:56;;;;;;;25.07;9.40;;;7.90;99.90;;;;;;5036989;28;20224;-88
2023/02/22 09:24:22;;;;;;;18.43;10.13;;;7.90;99.90;;;;;;5071655;28;20217;-92
2023/02/22 09:26:52;;;;;;;17.07;9.60;;;7.80;99.90;;;;;;5053824;28;20240;-89
2023/02/22 09:29:23;;;;;;;28.10;11.90;;;7.80;99.90;;;;;;5054395;28;20240;-90
2023/02/22 09:31:51;;;;;;;20.40;10.80;;;7.90;99.90;;;;;;5053741;28;20177;-88
2023/02/22 09:34:18;;;;;;;20.60;11.13;;;8.00;99.90;;;;;;5037799;28;20182;-89
2023/02/22 09:36:46;;;;;;;21.40;11.43;;;7.90;99.90;;;;;;5037373;28;20225;-93
2023/02/22 09:39:15;;;;;;;21.47;11.70;;;7.90;99.90;;;;;;5036268;28;20219;-87
2023/02/22 09:42:04;;;;;;;17.10;12.33;;;8.00;99.90;;;;;;5052631;28;20217;-87
2023/02/22 09:44:54;;;;;;;25.13;12.47;;;8.00;99.90;;;;;;5052738;28;20215;-87
2023/02/22 09:47:31;;;;;;;29.10;13.77;;;8.10;99.90;;;;;;5070932;28;20233;-85
2023/02/22 09:50:16;;;;;;;28.63;17.93;;;8.20;99.90;;;;;;5069589;28;20173;-88
2023/02/22 09:52:55;;;;;;;18.70;12.07;;;8.20;99.90;;;;;;5070523;28;20174;-86
2023/02/22 09:55:44;;;;;;;24.50;10.93;;;8.10;99.90;;;;;;5070230;28;20262;-85
2023/02/22 09:58:24;;;;;;;10.90;9.47;;;8.10;99.90;;;;;;5052238;28;20543;-85
2023/02/22 10:00:58;;;;;;;27.40;14.07;;;8.10;99.90;;;;;;5051945;28;20216;-88
2023/02/22 10:03:35;;;;;;;35.07;12.00;;;8.20;99.90;;;;;;5051762;28;20225;-87
2023/02/22 10:06:13;;;;;;;33.73;11.97;;;8.10;99.90;;;;;;5051303;28;20251;-86
2023/02/22 10:08:40;;;;;;;15.53;8.67;;;8.10;99.90;;;;;;5035451;28;20633;-85
2023/02/22 10:11:23;;;;;;;15.63;10.17;;;8.00;99.90;;;;;;5069589;28;20252;-86
2023/02/22 10:14:08;;;;;;;20.27;9.57;;;8.00;99.90;;;;;;5052625;28;20248;-85
2023/02/22 10:17:01;;;;;;;20.13;10.93;;;8.00;99.90;;;;;;5052307;28;20343;-85
2023/02/22 10:20:03;;;;;;;15.53;8.73;;;8.10;99.90;;;;;;5069507;28;20209;-85
2023/02/22 10:22:55;;;;;;;30.50;8.77;;;8.10;99.90;;;;;;5051990;28;20310;-85
2023/02/22 10:25:24;;;;;;;32.57;14.37;;;8.20;99.90;;;;;;5069596;28;20357;-85
2023/02/22 10:27:57;;;;;;;14.77;10.03;;;8.30;99.90;;;;;;5051420;28;20224;-86
2023/02/22 10:30:29;;;;;;;24.73;11.43;;;8.30;99.90;;;;;;5052080;28;20213;-84
2023/02/22 10:33:17;;;;;;;31.17;9.13;;;8.30;99.90;;;;;;5051552;28;20213;-86
2023/02/22 10:35:44;;;;;;;21.67;12.40;;;8.30;99.90;;;;;;5051381;28;20220;-87
2023/02/22 10:38:23;;;;;;;19.43;11.37;;;8.40;99.90;;;;;;5051262;28;20209;-87
2023/02/22 10:41:10;;;;;;;20.40;13.30;;;8.40;99.90;;;;;;5053419;28;20321;-87
2023/02/22 10:43:37;;;;;;;29.90;14.80;;;8.60;99.90;;;;;;5056315;28;20185;-86
2023/02/22 10:46:11;;;;;;;22.17;11.20;;;8.60;99.90;;;;;;5055644;28;20343;-87
2023/02/22 10:48:40;;;;;;;20.10;10.73;;;8.70;99.90;;;;;;5073449;28;20225;-86
2023/02/22 10:51:08;;;;;;;14.00;8.87;;;8.70;99.90;;;;;;5055210;28;20690;-90
2023/02/22 10:53:37;;;;;;;28.37;11.10;;;8.60;99.90;;;;;;5055176;28;20209;-88
2023/02/22 10:56:17;;;;;;;27.67;12.30;;;8.60;99.90;;;;;;5072760;28;20173;-89
2023/02/22 10:58:58;;;;;;;23.40;14.50;;;8.70;99.90;;;;;;5055838;28;20165;-93
2023/02/22 11:01:31;;;;;;;25.80;10.00;;;8.70;99.90;;;;;;5055042;28;20200;-90
2023/02/22 11:04:06;;;;;;;12.60;10.17;;;8.70;99.90;;;;;;5055100;28;20220;-87
2023/02/22 11:06:34;;;;;;;24.27;11.50;;;8.80;99.90;;;;;;5054202;28;20240;-89
2023/02/22 11:09:09;;;;;;;39.03;15.10;;;8.80;99.90;;;;;;5072524;28;20645;-86
2023/02/22 11:11:35;;;;;;;20.67;10.23;;;8.90;99.90;;;;;;5072739;28;20224;-87
2023/02/22 11:14:05;;;;;;;22.50;9.33;;;8.90;99.90;;;;;;5072450;28;20231;-87
2023/02/22 11:16:36;;;;;;;16.77;10.20;;;8.90;99.90;;;;;;5055766;28;20189;-85
2023/02/22 11:19:05;;;;;;;24.83;13.93;;;8.90;99.90;;;;;;5072402;28;20221;-86
2023/02/22 11:21:31;;;;;;;25.60;11.00;;;8.80;99.90;;;;;;5072553;28;20224;-86
2023/02/22 11:24:03;;;;;;;25.90;10.13;;;8.80;99.90;;;;;;5054620;28;20217;-92
2023/02/22 11:26:41;;;;;;;26.17;14.13;;;8.80;99.90;;;;;;5054463;28;20234;-88
2023/02/22 11:29:24;;;;;;;18.70;9.70;;;8.80;99.90;;;;;;5072516;28;20254;-88
2023/02/22 11:31:50;;;;;;;32.47;12.93;;;8.90;99.90;;;;;;5071784;28;20638;-88
2023/02/22 11:34:29;;;;;;;24.77;13.00;;;9.10;99.90;;;;;;5054650;28;20189;-91
2023/02/22 11:36:55;;;;;;;30.63;12.43;;;9.10;99.90;;;;;;5071720;28;20225;-85
2023/02/22 11:39:25;;;;;;;23.93;12.90;;;9.10;99.90;;;;;;5053792;28;20221;-85
2023/02/22 11:41:51;;;;;;;17.80;11.43;;;9.10;99.90;;;;;;5054355;28;20217;-85
2023/02/22 11:44:22;;;;;;;21.73;8.20;;;9.10;99.90;;;;;;5038199;28;20217;-86
2023/02/22 11:46:49;;;;;;;26.87;12.00;;;9.00;99.90;;;;;;5054457;28;20282;-89
2023/02/22 11:49:16;;;;;;;26.57;10.93;;;9.10;99.90;;;;;;5072724;28;20186;-88
2023/02/22 11:52:00;;;;;;;19.63;8.97;;;9.10;99.90;;;;;;5071851;28;20312;-87
2023/02/22 11:54:31;;;;;;;23.00;15.13;;;9.10;99.90;;;;;;5054284;28;20225;-86
2023/02/22 11:57:15;;;;;;;18.50;11.43;;;9.30;99.90;;;;;;5072311;28;20296;-85
2023/02/22 11:59:40;;;;;;;19.23;11.67;;;9.30;99.90;;;;;;5071849;28;20300;-88
2023/02/22 12:02:27;;;;;;;26.97;13.37;;;9.20;99.90;;;;;;5071740;28;20296;-86
2023/02/22 12:05:19;;;;;;;20.57;13.50;;;9.30;99.90;;;;;;5054139;28;20165;-88
2023/02/22 12:08:00;;;;;;;22.17;11.13;;;9.30;99.90;;;;;;5071698;28;20229;-85
2023/02/22 12:11:05;;;;;;;18.00;11.60;;;9.30;99.90;;;;;;5054716;28;20173;-85
2023/02/22 12:14:01;;;;;;;22.73;10.63;;;9.60;99.90;;;;;;5072296;28;20209;-86
2023/02/22 12:16:36;;;;;;;25.27;13.37;;;9.70;99.90;;;;;;5071364;28;20280;-88
2023/02/22 12:19:21;;;;;;;21.47;10.67;;;9.70;99.90;;;;;;5053928;28;20232;-86
2023/02/22 12:21:57;;;;;;;24.40;13.77;;;9.70;99.90;;;;;;5071160;28;20221;-90
2023/02/22 12:24:41;;;;;;;19.97;10.43;;;9.70;99.90;;;;;;5053505;28;20205;-86
2023/02/22 12:27:30;;;;;;;33.87;13.23;;;9.60;99.90;;;;;;5053360;28;20717;-87
2023/02/22 12:30:08;;;;;;;25.17;13.53;;;9.70;99.90;;;;;;5038587;28;20223;-86
2023/02/22 12:32:51;;;;;;;20.17;11.57;;;9.80;99.90;;;;;;5053726;28;20217;-87
2023/02/22 12:35:36;;;;;;;17.67;10.97;;;9.70;99.90;;;;;;5071158;28;20208;-87
2023/02/22 12:38:36;;;;;;;19.50;11.87;;;9.60;99.90;;;;;;5053375;28;20219;-86
2023/02/22 12:41:23;;;;;;;24.73;13.47;;;9.50;99.90;;;;;;5053416;28;20212;-86
2023/02/22 12:44:08;;;;;;;23.60;10.40;;;9.60;99.90;;;;;;5053212;28;20189;-86
2023/02/22 12:46:40;;;;;;;18.53;9.23;;;9.60;99.90;;;;;;5071624;28;20201;-89
2023/02/22 12:49:23;;;;;;;32.20;13.77;;;9.60;99.90;;;;;;5053101;28;20217;-89
2023/02/22 12:51:57;;;;;;;26.40;10.47;;;9.60;99.90;;;;;;5070983;28;20224;-86
2023/02/22 12:54:45;;;;;;;27.27;11.33;;;9.70;99.90;;;;;;5053090;28;20224;-89
2023/02/22 12:57:41;;;;;;;27.20;10.20;;;9.80;99.90;;;;;;5052950;28;20256;-86
2023/02/22 13:00:27;;;;;;;20.93;12.80;;;9.90;99.90;;;;;;5003959;28;20248;-89
2023/02/22 13:03:11;;;;;;;24.70;13.33;;;9.70;99.90;;;;;;5052384;28;20213;-86
2023/02/22 13:05:39;;;;;;;21.67;9.83;;;9.70;99.90;;;;;;5070480;28;20300;-85
2023/02/22 13:08:12;;;;;;;20.27;8.40;;;9.80;99.90;;;;;;5052708;28;20232;-87
2023/02/22 13:11:00;;;;;;;20.60;9.53;;;9.70;99.90;;;;;;5053571;28;20177;-89